Stations météo

réclame
Mon MeteoGroup
Humain, Belgique (6472): Température de l'air & dewpoint: 14.07.2018 22:00:00 - 20.07.2018 22:00:00 (CEST)Humain, Belgique (6472): Vitesse du vent & gusts: 14.07.2018 22:00:00 - 20.07.2018 22:00:00 (CEST)Humain, Belgique (6472): Direction du vent: 14.07.2018 22:00:00 - 20.07.2018 22:00:00 (CEST)Humain, Belgique (6472): reduced air pressure: 14.07.2018 22:00:00 - 20.07.2018 22:00:00 (CEST)Humain, Belgique (6472): Ensoleillement: 14.07.2018 22:00:00 - 20.07.2018 22:00:00 (CEST)Humain, Belgique (6472): Quantités de précipitations: 14.07.2018 22:00:00 - 20.07.2018 22:00:00 (CEST)
Date & Time tt [°C] td [°C] ff [km/h] ff [knt] fx [km/h] fx [knt] dd ppp [hPa] sd [min] rr [mm]
20.07.2018 22:00:00 19,4 8,4 5 3 9 5 N 1013,2 0 0,0
20.07.2018 21:00:00 20,3 8,2 8 5 15 8 NNW 1013,0 0 0,0
20.07.2018 20:00:00 20,9 8,6 11 6 21 11 N 1012,7 0 0,0
20.07.2018 19:00:00 21,4 8,9 12 7 23 12 NNW 1012,9 14 0,0
20.07.2018 18:00:00 22,0 11,1 14 8 22 12 NW 1013,1 2 0,0
20.07.2018 17:00:00 22,7 10,4 11 6 19 11 NW 1013,4 0 0,0
20.07.2018 16:00:00 23,1 11,5 9 5 20 11 NW 1013,6 0 0,2
20.07.2018 15:00:00 24,0 10,2 11 6 23 12 NW 1013,5 0 0,0
20.07.2018 14:00:00 25,4 9,9 14 8 21 11 NNW 1013,2 56 0,0
20.07.2018 13:00:00 25,8 10,5 8 4 16 9 W 1013,5 60 0,0
20.07.2018 12:00:00 24,2 10,7 8 4 26 14 ENE 1014,2 60 0,0
20.07.2018 11:00:00 22,3 11,3 7 4 - - NNE 1014,6 - -
20.07.2018 10:00:00 - - - - - - - - - -
20.07.2018 09:00:00 17,5 11,2 4 2 8 5 NNE 1015,6 60 0,0
20.07.2018 08:00:00 15,5 10,6 4 2 8 5 N 1015,9 29 0,0
20.07.2018 07:00:00 13,9 9,9 4 2 10 5 NE 1015,9 0 0,0
20.07.2018 06:00:00 13,5 9,5 7 4 8 5 E 1016,3 0 0,0
20.07.2018 05:00:00 15,2 8,9 6 3 8 4 NNE 1016,5 0 0,0
20.07.2018 04:00:00 15,8 8,8 6 4 9 5 NE 1016,6 0 0,0
20.07.2018 03:00:00 16,0 9,7 6 4 11 6 NNE 1017,0 0 0,0
20.07.2018 02:00:00 16,8 9,8 7 4 14 8 NNE 1017,3 0 0,0
20.07.2018 01:00:00 18,2 9,8 12 6 18 10 NNE 1017,5 0 0,0
20.07.2018 00:00:00 19,2 9,0 9 5 14 7 N 1017,4 0 0,0
19.07.2018 23:00:00 20,1 8,6 9 5 13 7 N 1017,1 0 0,0
19.07.2018 22:00:00 21,6 8,6 9 5 16 9 NNE 1016,9 14 0,0
19.07.2018 21:00:00 23,5 8,9 10 5 21 11 N 1016,4 57 0,0
19.07.2018 20:00:00 25,1 9,0 11 6 20 11 N 1016,0 60 0,0
19.07.2018 19:00:00 26,2 9,5 9 5 21 11 NNW 1016,0 60 0,0
19.07.2018 18:00:00 26,4 9,3 10 5 22 12 NW 1016,2 60 0,0
19.07.2018 17:00:00 26,3 8,2 7 4 - - NW 1016,7 - -
19.07.2018 16:00:00 25,9 8,1 7 4 18 10 SW 1017,1 60 0,0
19.07.2018 15:00:00 25,7 7,8 4 2 18 10 NW 1017,4 - -
19.07.2018 14:00:00 25,2 6,8 7 4 19 11 NW 1017,8 58 0,0
19.07.2018 13:00:00 24,5 6,3 7 4 13 7 SSE 1018,2 60 0,0
19.07.2018 12:00:00 23,1 8,7 4 2 12 6 SE 1018,6 60 0,0
19.07.2018 11:00:00 21,8 11,3 4 2 9 5 NNW 1018,9 60 0,0
19.07.2018 10:00:00 19,6 12,4 4 2 5 3 NNE 1019,4 60 0,0
19.07.2018 09:00:00 16,5 12,0 0 0 8 4 N 1019,7 60 0,0
19.07.2018 08:00:00 13,6 11,3 7 4 7 4 ESE 1020,1 60 0,0
19.07.2018 07:00:00 11,5 9,4 4 2 6 3 SSE 1020,3 32 0,0
19.07.2018 06:00:00 10,7 8,4 5 3 7 4 SE 1020,2 0 0,0
19.07.2018 05:00:00 11,9 9,3 4 2 6 4 SSE 1020,2 0 0,0
19.07.2018 04:00:00 13,2 9,3 4 2 5 3 SSW 1020,3 0 0,0
19.07.2018 03:00:00 14,8 10,1 4 2 12 6 N 1020,3 0 0,0
19.07.2018 02:00:00 15,3 9,9 7 4 13 7 ENE 1020,3 0 0,0
19.07.2018 01:00:00 16,3 9,5 7 4 13 7 NNE 1020,1 0 0,0
19.07.2018 00:00:00 17,2 8,8 10 5 14 8 N 1019,5 0 0,0
18.07.2018 23:00:00 17,9 8,6 8 4 11 6 N 1019,1 0 0,0
18.07.2018 22:00:00 19,6 8,3 8 5 12 7 N 1018,6 25 0,0
18.07.2018 21:00:00 22,3 8,1 8 4 16 9 NNW 1018,0 60 0,0
18.07.2018 20:00:00 23,6 8,2 11 6 19 10 NW 1017,8 60 0,0
18.07.2018 19:00:00 23,9 8,1 5 3 10 6 NNE 1017,6 42 0,0
18.07.2018 18:00:00 23,1 7,8 7 4 18 10 N 1018,1 46 0,0
18.07.2018 17:00:00 24,6 8,1 8 5 23 12 WNW 1018,2 60 0,0
18.07.2018 16:00:00 23,2 8,7 4 2 17 9 SW 1018,6 52 0,0
18.07.2018 15:00:00 22,8 8,7 8 5 24 13 W 1018,9 22 0,0
18.07.2018 14:00:00 21,9 8,9 11 6 21 11 WNW 1019,2 9 0,0
18.07.2018 13:00:00 22,1 8,7 8 4 18 10 NW 1019,2 55 0,0
18.07.2018 12:00:00 20,7 9,4 5 3 14 8 NW 1019,7 60 0,0
18.07.2018 11:00:00 18,3 10,1 8 4 11 6 WSW 1020,3 48 0,0
18.07.2018 10:00:00 17,0 9,9 5 3 10 5 SW 1020,3 51 0,0
18.07.2018 09:00:00 14,7 10,0 6 4 11 6 WSW 1020,4 5 0,0
18.07.2018 08:00:00 13,8 11,2 4 2 4 2 ESE 1020,1 1 0,0
18.07.2018 07:00:00 11,9 9,6 4 2 9 5 SE 1020,2 16 0,0
18.07.2018 06:00:00 11,5 8,3 4 2 13 7 S 1020,3 0 0,0
18.07.2018 05:00:00 12,2 9,1 5 3 9 5 ESE 1019,9 0 0,0
18.07.2018 04:00:00 12,2 8,9 6 4 8 5 S 1020,2 0 0,0
18.07.2018 03:00:00 12,9 9,0 4 2 9 5 SSE 1020,0 0 0,0
18.07.2018 02:00:00 13,9 8,1 4 2 8 4 E 1019,9 0 0,0
18.07.2018 01:00:00 15,8 7,4 4 2 10 5 N 1019,9 0 0,0
18.07.2018 00:00:00 17,4 7,6 5 3 16 8 NW 1019,5 0 0,0
17.07.2018 23:00:00 18,1 8,5 7 4 13 7 NW 1019,0 0 0,0
17.07.2018 22:00:00 19,5 8,8 11 6 19 10 NW 1018,4 27 0,0
17.07.2018 21:00:00 21,5 8,8 10 6 29 16 WNW 1017,6 60 0,0
17.07.2018 20:00:00 22,7 9,5 14 8 31 17 NW 1016,7 60 0,0
17.07.2018 19:00:00 23,4 10,3 16 8 31 17 WNW 1016,6 46 0,0
17.07.2018 18:00:00 24,3 10,9 20 11 31 17 W 1016,5 46 0,0
17.07.2018 17:00:00 24,4 12,3 21 11 36 20 W 1016,2 50 0,0
17.07.2018 16:00:00 23,8 12,6 19 11 32 18 WNW 1016,4 31 0,0
17.07.2018 15:00:00 23,7 12,4 18 10 26 14 NW 1016,5 29 0,0
17.07.2018 14:00:00 24,8 12,5 14 8 27 15 W 1016,4 55 0,0
17.07.2018 13:00:00 22,6 11,2 9 5 18 10 SW 1016,9 60 0,0
17.07.2018 12:00:00 20,8 12,2 7 4 16 8 WSW 1017,0 15 0,0
17.07.2018 11:00:00 20,1 11,5 11 6 18 10 SW 1016,9 36 0,0
17.07.2018 10:00:00 20,2 11,7 11 6 18 10 W 1016,8 60 0,0
17.07.2018 09:00:00 18,7 11,0 6 4 14 7 W 1016,6 60 0,0
17.07.2018 08:00:00 16,9 13,5 4 2 9 5 SSW 1016,5 34 0,0
17.07.2018 07:00:00 15,2 11,6 6 3 10 5 S 1016,2 1 0,0
17.07.2018 06:00:00 15,2 12,0 8 4 11 6 SSW 1016,0 0 0,0
17.07.2018 05:00:00 16,9 12,2 9 5 17 9 WSW 1015,4 0 0,0
17.07.2018 04:00:00 16,9 12,6 9 5 12 6 SW 1015,3 0 0,0
17.07.2018 03:00:00 18,4 11,7 7 4 15 8 W 1015,2 0 0,0
17.07.2018 02:00:00 18,7 10,7 6 3 9 5 WSW 1014,9 0 0,0
17.07.2018 01:00:00 20,1 10,7 4 2 5 3 WSW 1014,7 0 0,0
17.07.2018 00:00:00 20,0 10,7 4 2 9 5 S 1014,7 0 0,0
16.07.2018 23:00:00 20,9 10,4 6 4 20 11 NE 1014,4 0 0,0
16.07.2018 22:00:00 21,8 10,0 12 7 24 13 N 1013,7 0 0,0
16.07.2018 21:00:00 24,4 6,6 12 6 26 14 NW 1012,7 20 0,0
16.07.2018 20:00:00 26,8 5,5 11 6 18 10 NNW 1011,7 60 0,0
16.07.2018 19:00:00 27,5 4,2 11 6 19 10 NNW 1011,5 60 0,0
16.07.2018 18:00:00 27,6 3,9 14 7 23 12 N 1011,5 60 0,0
16.07.2018 17:00:00 28,0 5,5 8 4 25 14 NW 1011,7 60 0,0
16.07.2018 16:00:00 27,6 5,9 9 5 23 12 NNW 1012,1 60 0,0
16.07.2018 15:00:00 26,3 6,2 10 5 24 13 NNW 1012,7 60 0,0
16.07.2018 14:00:00 26,1 6,1 11 6 18 10 NNE 1013,3 60 0,0
16.07.2018 13:00:00 26,0 8,0 8 5 16 9 N 1013,4 60 0,0
16.07.2018 12:00:00 25,1 8,2 9 5 21 11 N 1013,9 60 0,0
16.07.2018 11:00:00 23,7 10,3 6 4 13 7 N 1014,1 60 0,0
16.07.2018 10:00:00 21,9 13,4 4 2 6 3 N 1014,3 60 0,0
16.07.2018 09:00:00 19,9 13,0 0 0 9 5 N 1014,8 60 0,0
16.07.2018 08:00:00 17,2 12,9 11 6 11 6 E 1015,0 60 0,0
16.07.2018 07:00:00 15,6 12,5 10 5 13 7 E 1015,2 23 0,0
16.07.2018 06:00:00 14,5 11,7 7 4 10 5 ESE 1015,3 0 0,0
16.07.2018 05:00:00 15,6 12,0 5 3 13 7 ESE 1015,0 0 0,0
16.07.2018 04:00:00 16,4 11,9 12 7 13 7 E 1015,3 0 0,0
16.07.2018 03:00:00 16,5 11,2 10 5 13 7 E 1015,4 0 0,0
16.07.2018 02:00:00 18,4 12,0 4 2 6 4 S 1015,5 0 0,0
16.07.2018 01:00:00 19,3 11,1 7 4 11 6 S 1015,6 0 0,0
16.07.2018 00:00:00 20,3 9,0 8 4 16 9 E 1015,3 0 0,0
15.07.2018 23:00:00 21,7 8,4 11 6 16 8 NNE 1015,3 0 0,0
15.07.2018 22:00:00 23,1 8,2 11 6 17 9 NE 1014,6 8 0,0
15.07.2018 21:00:00 23,6 11,0 5 3 11 6 N 1014,1 29 0,0
15.07.2018 20:00:00 24,3 10,5 4 2 16 8 N 1013,7 14 0,0
15.07.2018 19:00:00 25,5 9,3 12 6 20 11 ENE 1013,8 42 0,0
15.07.2018 18:00:00 26,2 9,1 11 6 22 12 NE 1013,8 52 0,0
15.07.2018 17:00:00 27,3 9,8 12 7 22 12 NW 1013,9 39 0,0
15.07.2018 16:00:00 26,2 9,6 8 5 21 11 NNE 1014,5 38 0,0
15.07.2018 15:00:00 26,5 10,0 11 6 24 13 N 1015,1 34 0,0
15.07.2018 14:00:00 26,1 9,2 11 6 20 11 N 1015,6 58 0,0
15.07.2018 13:00:00 25,3 9,4 6 3 16 9 WNW 1016,3 60 0,0
15.07.2018 12:00:00 24,4 9,2 6 4 14 8 N 1016,8 60 0,0
15.07.2018 11:00:00 23,3 10,6 8 4 12 6 NE 1017,2 60 0,0
15.07.2018 10:00:00 20,9 13,3 4 2 8 4 N 1017,5 60 0,0
15.07.2018 09:00:00 18,1 13,1 4 2 7 4 N 1018,0 60 0,0
15.07.2018 08:00:00 16,6 12,7 0 0 9 5 N 1018,1 60 0,0
15.07.2018 07:00:00 14,3 10,3 9 5 10 6 NNE 1018,1 28 0,0
15.07.2018 06:00:00 14,2 9,6 5 3 13 7 NE 1018,3 0 0,0
15.07.2018 05:00:00 15,5 10,0 11 6 14 8 NE 1018,3 0 0,0
15.07.2018 04:00:00 15,6 9,8 8 5 13 7 NE 1018,7 0 0,0
15.07.2018 03:00:00 15,6 9,0 5 3 18 10 E 1018,9 0 0,0
15.07.2018 02:00:00 17,8 10,0 14 8 19 10 NNE 1018,8 0 0,0
15.07.2018 01:00:00 18,4 10,2 10 6 16 9 NNE 1018,9 0 0,0
15.07.2018 00:00:00 19,3 10,8 10 5 16 8 NE 1018,7 0 0,0
14.07.2018 23:00:00 20,3 10,1 10 6 13 7 NE 1018,4 0 0,0
14.07.2018 22:00:00 21,4 9,5 8 4 12 7 NNE 1018,0 26 0,0

tt = Température de l'air
td = dewpoint
ff = Vitesse du vent
fx = gusts
dd = Direction du vent
ppp = reduced air pressure
sd = Ensoleillement
rr = Quantités de précipitations

stations d'obs. à proximité